createdAt,value
2017-09-16T00:02:12.419Z,85.98
2017-09-16T00:04:41.813Z,85.89
2017-09-16T00:07:11.158Z,86.16
2017-09-16T00:09:40.517Z,86.09
2017-09-16T00:12:09.979Z,85.88
2017-09-16T00:14:39.304Z,85.93
2017-09-16T00:17:08.694Z,86.07
2017-09-16T00:19:38.099Z,85.93
2017-09-16T00:22:07.547Z,85.94
2017-09-16T00:24:37.259Z,85.83
2017-09-16T00:27:06.887Z,85.91
2017-09-16T00:29:36.268Z,85.91
2017-09-16T00:32:05.655Z,85.61
2017-09-16T00:34:35.024Z,85.70
2017-09-16T00:37:04.447Z,85.59
2017-09-16T00:39:33.748Z,85.92
2017-09-16T00:42:03.200Z,85.71
2017-09-16T00:44:32.608Z,85.77
2017-09-16T00:47:01.914Z,85.75
2017-09-16T00:49:31.278Z,85.77
2017-09-16T00:52:00.815Z,86.21
2017-09-16T00:54:30.120Z,85.80
2017-09-16T00:56:59.565Z,85.62
2017-09-16T00:59:29.062Z,85.89
2017-09-16T01:01:58.487Z,86.50
2017-09-16T01:04:28.033Z,86.03
2017-09-16T01:06:57.497Z,85.94
2017-09-16T01:09:27.061Z,85.96
2017-09-16T01:11:56.572Z,85.89
2017-09-16T01:14:26.004Z,85.88
2017-09-16T01:16:55.536Z,86.02
2017-09-16T01:19:24.980Z,86.27
2017-09-16T01:21:54.630Z,85.94
2017-09-16T01:24:23.988Z,85.89
2017-09-16T01:26:53.692Z,86.29
2017-09-16T01:29:23.112Z,85.76
2017-09-16T01:31:52.453Z,85.93
2017-09-16T01:34:21.791Z,86.08
2017-09-16T01:36:51.161Z,86.05
2017-09-16T01:39:20.517Z,86.13
2017-09-16T01:41:49.863Z,86.45
2017-09-16T01:44:19.192Z,86.26
2017-09-16T01:46:48.539Z,86.31
2017-09-16T01:49:17.880Z,86.26
2017-09-16T01:51:47.311Z,86.23
2017-09-16T01:54:16.604Z,86.32
2017-09-16T01:56:45.936Z,86.03
2017-09-16T01:59:15.258Z,85.94
2017-09-16T02:01:44.777Z,86.09
2017-09-16T02:04:14.268Z,85.93
2017-09-16T02:06:43.615Z,86.06
2017-09-16T02:09:12.952Z,85.84
2017-09-16T02:11:42.372Z,85.96
2017-09-16T02:14:11.672Z,86.03
2017-09-16T02:16:41.013Z,86.17
2017-09-16T02:19:10.580Z,85.85
2017-09-16T02:21:39.934Z,85.70
2017-09-16T02:24:09.283Z,85.58
2017-09-16T02:26:38.676Z,85.78
2017-09-16T02:29:08.056Z,85.75
2017-09-16T02:31:37.399Z,85.94
2017-09-16T02:34:06.704Z,85.60
2017-09-16T02:36:36.042Z,85.65
2017-09-16T02:39:05.892Z,85.84
2017-09-16T02:41:35.249Z,85.74
2017-09-16T02:44:04.636Z,85.67
2017-09-16T02:46:34.001Z,85.48
2017-09-16T02:49:03.404Z,85.94
2017-09-16T02:51:32.791Z,85.83
2017-09-16T02:54:02.196Z,85.75
2017-09-16T02:56:31.529Z,85.97
2017-09-16T02:59:01.131Z,86.38
2017-09-16T03:01:30.549Z,85.80
2017-09-16T03:03:59.895Z,85.95
2017-09-16T03:06:30.056Z,85.87
2017-09-16T03:08:59.432Z,86.14
2017-09-16T03:11:28.772Z,85.82
2017-09-16T03:13:58.045Z,85.86
2017-09-16T03:16:27.421Z,85.96
2017-09-16T03:18:56.792Z,85.71
2017-09-16T03:21:26.141Z,85.88
2017-09-16T03:23:55.444Z,86.04
2017-09-16T03:26:24.760Z,86.24
2017-09-16T03:28:54.259Z,86.05
2017-09-16T03:31:23.647Z,85.85
2017-09-16T03:33:52.924Z,85.68
2017-09-16T03:36:22.284Z,85.78
2017-09-16T03:38:51.588Z,86.39
2017-09-16T03:41:20.936Z,86.26
2017-09-16T03:43:50.197Z,86.30
2017-09-16T03:46:19.662Z,86.10
2017-09-16T03:48:48.966Z,86.31
2017-09-16T03:51:18.327Z,86.33
2017-09-16T03:53:47.627Z,86.53
2017-09-16T03:56:16.939Z,86.46
2017-09-16T03:58:46.212Z,86.39
2017-09-16T04:04:13.173Z,86.06
2017-09-16T04:06:42.731Z,86.10
2017-09-16T04:09:12.331Z,86.02
2017-09-16T04:11:41.687Z,85.93
2017-09-16T04:14:11.003Z,86.41
2017-09-16T04:16:40.367Z,86.21
2017-09-16T04:19:09.769Z,85.96
2017-09-16T04:21:39.168Z,86.23
2017-09-16T04:24:08.535Z,85.87
2017-09-16T04:26:37.867Z,86.17
2017-09-16T04:29:07.143Z,85.91
2017-09-16T04:31:36.527Z,86.03
2017-09-16T04:34:05.794Z,85.97
2017-09-16T04:36:35.117Z,86.16
2017-09-16T04:39:05.449Z,86.05
2017-09-16T04:41:34.828Z,86.33
2017-09-16T04:44:04.103Z,86.44
2017-09-16T04:46:33.608Z,86.52
2017-09-16T04:49:02.896Z,86.05
2017-09-16T04:51:32.244Z,86.42
2017-09-16T04:54:01.685Z,85.95
2017-09-16T04:56:37.415Z,86.06
2017-09-16T04:59:06.742Z,86.20
2017-09-16T05:01:36.056Z,86.43
2017-09-16T05:04:05.397Z,86.32
2017-09-16T05:06:34.831Z,86.36
2017-09-16T05:09:04.461Z,86.23
2017-09-16T05:11:33.917Z,86.25
2017-09-16T05:14:03.229Z,86.59
2017-09-16T05:16:32.769Z,86.41
2017-09-16T05:19:02.066Z,86.42
2017-09-16T05:21:31.561Z,85.93
2017-09-16T05:24:00.868Z,85.76
2017-09-16T05:26:30.321Z,85.67
2017-09-16T05:28:59.709Z,86.01
2017-09-16T05:31:29.203Z,86.07
2017-09-16T05:33:58.531Z,85.89
2017-09-16T05:36:27.881Z,86.12
2017-09-16T05:38:57.226Z,86.17
2017-09-16T05:41:26.688Z,86.36
2017-09-16T05:43:56.088Z,86.35
2017-09-16T05:46:25.483Z,86.67
2017-09-16T05:48:54.895Z,86.48
2017-09-16T05:51:24.300Z,86.40
2017-09-16T05:53:53.762Z,86.67
2017-09-16T05:56:23.064Z,87.29
2017-09-16T05:58:52.400Z,87.92
2017-09-16T06:01:22.214Z,88.00
2017-09-16T06:03:51.547Z,87.94
2017-09-16T06:06:21.900Z,87.66
2017-09-16T06:08:53.751Z,87.33
2017-09-16T06:11:23.204Z,86.45
2017-09-16T06:13:52.463Z,86.19
2017-09-16T06:16:21.816Z,84.52
2017-09-16T06:18:52.224Z,83.93
2017-09-16T06:21:22.439Z,82.70
2017-09-16T06:23:51.731Z,82.44
2017-09-16T06:26:21.091Z,79.66
2017-09-16T06:28:50.438Z,78.26
2017-09-16T06:31:19.758Z,77.30
2017-09-16T06:33:49.048Z,77.64
2017-09-16T06:36:18.430Z,77.23
2017-09-16T06:38:47.695Z,76.84
2017-09-16T06:41:16.988Z,75.96
2017-09-16T06:46:21.799Z,74.21
2017-09-16T06:48:51.035Z,74.87
2017-09-16T06:51:20.349Z,74.65
2017-09-16T06:53:49.696Z,76.34
2017-09-16T06:56:19.072Z,74.79
2017-09-16T06:58:48.375Z,75.41
2017-09-16T07:01:17.719Z,74.68
2017-09-16T07:03:47.031Z,74.65
2017-09-16T07:06:16.447Z,75.60
2017-09-16T07:08:45.723Z,76.44
2017-09-16T07:11:15.241Z,77.08
2017-09-16T07:13:44.537Z,77.42
2017-09-16T07:16:13.898Z,78.38
2017-09-16T07:18:43.370Z,79.21
2017-09-16T07:21:12.988Z,79.04
2017-09-16T07:23:42.338Z,79.48
2017-09-16T07:26:11.691Z,79.11
2017-09-16T07:28:43.731Z,79.25
2017-09-16T07:31:15.423Z,80.26
2017-09-16T07:33:45.499Z,80.23
2017-09-16T07:36:14.832Z,80.01
2017-09-16T07:38:44.192Z,79.85
2017-09-16T07:41:13.561Z,78.89
2017-09-16T07:43:44.119Z,79.11
2017-09-16T07:46:14.689Z,79.22
2017-09-16T07:48:44.028Z,79.52
2017-09-16T07:51:13.407Z,79.45
2017-09-16T07:53:42.858Z,79.04
2017-09-16T07:56:12.553Z,78.19
2017-09-16T07:58:43.489Z,78.49
2017-09-16T08:01:12.826Z,78.10
2017-09-16T08:03:42.189Z,77.14
2017-09-16T08:06:12.701Z,77.11
2017-09-16T08:08:43.217Z,77.22
2017-09-16T08:11:16.230Z,77.40
2017-09-16T08:13:46.117Z,77.13
2017-09-16T08:16:15.790Z,77.62
2017-09-16T08:18:45.960Z,76.98
2017-09-16T08:21:16.749Z,76.85
2017-09-16T08:23:46.168Z,74.91
2017-09-16T08:26:15.817Z,75.51
2017-09-16T08:28:45.167Z,75.50
2017-09-16T08:31:14.511Z,75.30
2017-09-16T08:33:43.832Z,74.66
2017-09-16T08:36:13.195Z,75.38
2017-09-16T08:38:42.523Z,75.46
2017-09-16T08:41:11.865Z,75.72
2017-09-16T08:43:42.045Z,73.20
2017-09-16T08:46:13.885Z,74.65
2017-09-16T08:48:43.436Z,74.67
2017-09-16T08:51:12.804Z,74.03
2017-09-16T08:53:42.344Z,74.42
2017-09-16T08:56:11.776Z,74.55
2017-09-16T08:58:41.134Z,71.70
2017-09-16T09:01:10.967Z,72.55
2017-09-16T09:03:41.573Z,71.84
2017-09-16T09:06:14.132Z,72.52
2017-09-16T09:08:43.894Z,71.59
2017-09-16T09:11:17.986Z,71.20
2017-09-16T09:13:48.362Z,71.19
2017-09-16T09:16:19.467Z,70.11
2017-09-16T09:18:48.847Z,69.81
2017-09-16T09:21:18.393Z,68.71
2017-09-16T09:23:47.782Z,66.65
2017-09-16T09:26:17.140Z,66.96
2017-09-16T09:28:46.603Z,65.90
2017-09-16T09:31:15.992Z,64.38
2017-09-16T09:33:47.621Z,63.32
2017-09-16T09:36:17.016Z,61.84
2017-09-16T09:38:50.775Z,62.76
2017-09-16T09:41:20.921Z,63.71
2017-09-16T09:43:51.662Z,62.02
2017-09-16T09:46:23.628Z,61.65
2017-09-16T09:48:53.204Z,60.59
2017-09-16T09:51:22.716Z,60.10
2017-09-16T09:53:52.237Z,58.46
2017-09-16T09:56:21.619Z,57.18
2017-09-16T09:58:51.165Z,58.51
2017-09-16T10:01:33.078Z,55.17
2017-09-16T10:04:05.653Z,52.29
2017-09-16T10:06:36.405Z,50.32
2017-09-16T10:09:06.061Z,44.37
2017-09-16T10:11:36.776Z,43.61
2017-09-16T10:14:06.276Z,44.07
2017-09-16T10:16:35.712Z,49.32
2017-09-16T10:19:05.097Z,46.85
2017-09-16T10:21:34.441Z,50.38
2017-09-16T10:24:03.761Z,52.06
2017-09-16T10:26:33.149Z,53.88
2017-09-16T10:29:02.533Z,55.15
2017-09-16T10:31:31.882Z,55.14
2017-09-16T10:34:01.146Z,53.81
2017-09-16T10:36:30.518Z,54.41
2017-09-16T10:38:59.853Z,55.04
2017-09-16T10:41:29.324Z,56.80
2017-09-16T10:43:58.792Z,57.79
2017-09-16T10:46:28.168Z,58.33
2017-09-16T10:48:57.487Z,58.58
2017-09-16T10:51:27.876Z,54.98
2017-09-16T10:53:57.266Z,56.57
2017-09-16T10:56:27.257Z,55.12
2017-09-16T10:58:56.631Z,54.30
2017-09-16T11:01:25.948Z,53.89
2017-09-16T11:03:55.589Z,55.01
2017-09-16T11:06:25.081Z,55.24
2017-09-16T11:08:54.475Z,55.85
2017-09-16T11:11:23.856Z,56.31
2017-09-16T11:13:55.243Z,59.66
2017-09-16T11:16:24.617Z,58.25
2017-09-16T11:18:54.101Z,58.38
2017-09-16T11:21:23.580Z,58.43
2017-09-16T11:23:52.925Z,58.42
2017-09-16T11:26:22.349Z,59.09
2017-09-16T11:28:51.740Z,57.91
2017-09-16T11:31:21.071Z,59.97
2017-09-16T11:33:50.385Z,59.37
2017-09-16T11:36:19.737Z,57.29
2017-09-16T11:38:49.156Z,55.64
2017-09-16T11:41:18.617Z,56.15
2017-09-16T11:43:47.947Z,56.65
2017-09-16T11:46:17.263Z,57.47
2017-09-16T11:48:46.785Z,56.64
2017-09-16T11:51:16.116Z,57.52
2017-09-16T11:53:45.422Z,58.30
2017-09-16T11:56:14.758Z,57.69
2017-09-16T11:58:44.186Z,58.93
2017-09-16T12:01:13.535Z,59.41
2017-09-16T12:03:42.885Z,58.88
2017-09-16T12:06:12.496Z,58.29
2017-09-16T12:08:41.860Z,59.10
2017-09-16T12:11:11.236Z,59.22
2017-09-16T12:13:40.564Z,60.28
2017-09-16T12:16:10.135Z,59.22
2017-09-16T12:18:39.739Z,58.46
2017-09-16T12:21:09.075Z,58.62
2017-09-16T12:23:38.392Z,57.78
2017-09-16T12:26:07.711Z,57.92
2017-09-16T12:28:37.201Z,58.04
2017-09-16T12:31:06.543Z,59.22
2017-09-16T12:33:36.013Z,59.36
2017-09-16T12:36:05.367Z,58.76
2017-09-16T12:38:34.727Z,58.82
2017-09-16T12:41:04.073Z,58.26
2017-09-16T12:43:33.426Z,57.81
2017-09-16T12:46:02.912Z,58.46
2017-09-16T12:48:32.241Z,59.83
2017-09-16T12:51:01.616Z,60.50
2017-09-16T12:53:30.923Z,58.61
2017-09-16T12:56:00.231Z,59.34
2017-09-16T12:58:29.857Z,58.76
2017-09-16T13:00:59.161Z,58.94
2017-09-16T13:03:28.467Z,60.09
2017-09-16T13:05:57.939Z,60.38
2017-09-16T13:08:27.224Z,58.18
2017-09-16T13:10:56.576Z,57.35
2017-09-16T13:13:26.040Z,56.78
2017-09-16T13:15:55.446Z,57.86
2017-09-16T13:18:25.288Z,57.90
2017-09-16T13:20:54.652Z,58.85
2017-09-16T13:23:23.959Z,59.01
2017-09-16T13:25:53.318Z,58.91
2017-09-16T13:28:22.712Z,59.36
2017-09-16T13:30:52.217Z,59.46
2017-09-16T13:33:21.685Z,57.69
2017-09-16T13:35:51.119Z,57.69
2017-09-16T13:38:20.441Z,55.81
2017-09-16T13:40:49.773Z,56.36
2017-09-16T13:43:19.079Z,56.98
2017-09-16T13:45:48.447Z,56.52
2017-09-16T13:48:17.867Z,57.79
2017-09-16T13:50:47.219Z,58.51
2017-09-16T13:53:16.480Z,58.01
2017-09-16T13:55:45.784Z,59.60
2017-09-16T13:58:15.042Z,59.96
2017-09-16T14:00:44.432Z,61.35
2017-09-16T14:03:14.916Z,60.67
2017-09-16T14:05:44.385Z,60.64
2017-09-16T14:08:14.073Z,60.41
2017-09-16T14:10:44.359Z,60.21
2017-09-16T14:13:13.960Z,60.37
2017-09-16T14:15:43.577Z,61.15
2017-09-16T14:18:12.891Z,60.84
2017-09-16T14:20:44.240Z,60.56
2017-09-16T14:23:15.355Z,59.84
2017-09-16T14:25:44.916Z,58.70
2017-09-16T14:28:14.228Z,57.78
2017-09-16T14:31:06.680Z,58.51
2017-09-16T14:33:36.120Z,57.99
2017-09-16T14:36:05.483Z,58.75
2017-09-16T14:38:34.804Z,59.27
2017-09-16T14:41:04.184Z,59.38
2017-09-16T14:43:33.503Z,57.65
2017-09-16T14:46:03.230Z,58.31
2017-09-16T14:48:33.515Z,58.11
2017-09-16T14:51:02.925Z,57.79
2017-09-16T14:53:32.267Z,57.94
2017-09-16T14:56:01.638Z,58.84
2017-09-16T14:58:30.955Z,58.98
2017-09-16T15:01:00.336Z,58.04
2017-09-16T15:03:30.508Z,57.78
2017-09-16T15:06:00.164Z,57.53
2017-09-16T15:08:29.500Z,57.58
2017-09-16T15:11:03.938Z,58.08
2017-09-16T15:13:52.118Z,57.95
2017-09-16T15:16:59.258Z,59.27
2017-09-16T15:19:31.493Z,59.35
2017-09-16T15:22:11.402Z,59.13
2017-09-16T15:24:44.523Z,59.07
2017-09-16T15:27:19.671Z,59.94
2017-09-16T15:29:56.062Z,61.54
2017-09-16T15:32:33.727Z,61.63
2017-09-16T15:35:07.284Z,61.86
2017-09-16T15:37:41.520Z,60.70
2017-09-16T15:40:16.567Z,60.92
2017-09-16T15:42:50.997Z,58.89
2017-09-16T15:45:24.005Z,59.17
2017-09-16T15:47:57.344Z,57.27
2017-09-16T15:50:28.443Z,58.53
2017-09-16T15:53:04.401Z,58.08
2017-09-16T15:55:48.430Z,57.77
2017-09-16T15:58:22.831Z,58.40
2017-09-16T16:00:56.097Z,57.94
2017-09-16T16:03:27.167Z,59.59
2017-09-16T16:05:57.285Z,60.45
2017-09-16T16:08:27.448Z,60.44
2017-09-16T16:11:00.451Z,60.93
2017-09-16T16:13:33.502Z,61.31
2017-09-16T16:16:07.068Z,60.55
2017-09-16T16:18:39.176Z,60.73
2017-09-16T16:21:19.410Z,61.01
2017-09-16T16:23:53.220Z,60.19
2017-09-16T16:26:34.115Z,59.17
2017-09-16T16:29:09.948Z,59.75
2017-09-16T16:31:44.451Z,60.35
2017-09-16T16:34:21.965Z,60.68
2017-09-16T16:37:03.022Z,61.01
2017-09-16T16:41:00.497Z,61.55
2017-09-16T16:43:35.445Z,62.28
2017-09-16T16:46:16.242Z,62.50
2017-09-16T16:48:53.765Z,62.99
2017-09-16T16:51:38.760Z,62.96
2017-09-16T16:54:11.263Z,63.26
2017-09-16T16:59:30.998Z,63.52
2017-09-16T17:02:07.389Z,63.85
2017-09-16T17:04:42.208Z,64.57
2017-09-16T17:08:05.186Z,64.99
2017-09-16T17:10:49.935Z,66.44
2017-09-16T20:57:31.467Z,79.74
2017-09-16T21:00:08.054Z,79.90
2017-09-16T21:03:08.859Z,79.88
2017-09-16T21:05:41.553Z,80.49
2017-09-16T21:08:11.180Z,80.59
2017-09-16T21:10:40.735Z,80.84
2017-09-16T21:13:10.152Z,80.74
2017-09-16T21:15:39.659Z,81.41
2017-09-16T21:18:09.018Z,81.92
2017-09-16T21:20:39.379Z,81.05
2017-09-16T21:23:08.679Z,80.93
2017-09-16T21:25:39.733Z,81.43
2017-09-16T21:28:09.133Z,81.27
2017-09-16T21:30:38.596Z,81.26
2017-09-16T21:33:08.034Z,81.64
2017-09-16T21:35:38.669Z,82.13
2017-09-16T21:38:10.074Z,81.85
2017-09-16T21:40:40.578Z,81.51
2017-09-16T21:43:11.825Z,81.60
2017-09-16T21:45:41.844Z,81.73
2017-09-16T21:48:11.516Z,82.00
2017-09-16T21:50:41.216Z,82.43
2017-09-16T21:53:11.174Z,82.40
2017-09-16T21:55:40.762Z,82.33
2017-09-16T21:58:10.239Z,82.37
2017-09-16T22:00:39.997Z,82.32
2017-09-16T22:03:09.643Z,82.30
2017-09-16T22:05:39.195Z,83.43
2017-09-16T22:08:08.697Z,82.55
2017-09-16T22:10:38.281Z,83.39
2017-09-16T22:13:08.485Z,82.81
2017-09-16T22:15:38.018Z,83.81
2017-09-16T22:18:07.571Z,83.35
2017-09-16T22:20:37.417Z,84.40
2017-09-16T22:23:07.181Z,83.57
2017-09-16T22:25:39.107Z,83.79
2017-09-16T22:28:09.880Z,83.58
2017-09-16T22:30:39.441Z,83.74
2017-09-16T22:33:09.979Z,83.58
2017-09-16T22:35:39.801Z,83.67
2017-09-16T22:38:09.161Z,83.84
2017-09-16T22:40:39.720Z,83.99
2017-09-16T22:43:09.236Z,84.01
2017-09-16T22:45:38.757Z,84.27
2017-09-16T22:48:08.639Z,84.14
2017-09-16T22:50:38.088Z,84.64
2017-09-16T22:53:08.600Z,84.12
2017-09-16T22:55:38.260Z,84.33
2017-09-16T22:58:07.762Z,84.81
2017-09-16T23:00:37.125Z,84.60
2017-09-16T23:03:06.485Z,84.43
2017-09-16T23:05:35.872Z,84.34
2017-09-16T23:08:05.372Z,84.32
2017-09-16T23:10:34.889Z,84.30
2017-09-16T23:13:04.415Z,83.91
2017-09-16T23:15:34.709Z,83.82
2017-09-16T23:18:04.873Z,83.93
2017-09-16T23:20:34.532Z,84.70
2017-09-16T23:23:03.816Z,84.45
2017-09-16T23:25:34.243Z,84.49
2017-09-16T23:28:03.685Z,84.64
2017-09-16T23:30:33.035Z,84.70
2017-09-16T23:33:02.397Z,84.84
2017-09-16T23:35:31.935Z,84.30
2017-09-16T23:38:01.439Z,84.37
2017-09-16T23:40:30.870Z,84.19
2017-09-16T23:43:00.212Z,84.74
2017-09-16T23:45:31.723Z,84.51
2017-09-16T23:48:01.049Z,84.48
2017-09-16T23:50:30.658Z,84.14
2017-09-16T23:53:00.030Z,84.35
2017-09-16T23:55:29.457Z,85.12
2017-09-16T23:57:58.791Z,84.50
